Oaktown, Indiana
Current Conditions -  °F | °C
As of 12:53 PM on Sunday 23 Nov 2014 (Local Time) from KLWV Reporting Station
Light Rain Light Rain  
Wind Chill: 53°   Ceiling: 1200
Heat Index: 53°   Visibility: 1.5mi
Dew Point: 51°   Wind: 12mph
Humidity: 93%   Direction: 140°SE
Pressure: 29.59"   Gusts: NA
Location:  38.87°N, 87.44°W
Report Text: KLWV 231853Z AUTO 14010KT 1 1/2SM -RA BR BKN012 OVC020 12/11 A2959 RMK AO2 RAE07B44 SLP020 P0001 T01170106
Loading
Personal Weather Stations






























Interactive Weather Map New forecast layout! Learn more

10-Day Weather Forecast

Advertisements
Track Severe Weather on mobile